createdAt,value
2023-03-02T00:01:02.734Z,26.33
2023-03-02T00:03:29.922Z,23.10
2023-03-02T00:05:56.768Z,22.90
2023-03-02T00:08:23.483Z,20.63
2023-03-02T00:10:49.922Z,23.50
2023-03-02T00:13:16.442Z,22.83
2023-03-02T00:15:42.858Z,28.83
2023-03-02T00:18:09.280Z,24.35
2023-03-02T00:20:35.999Z,27.40
2023-03-02T00:23:02.517Z,26.95
2023-03-02T00:25:28.928Z,21.83
2023-03-02T00:27:55.485Z,24.40
2023-03-02T00:30:22.138Z,19.60
2023-03-02T00:32:48.704Z,20.88
2023-03-02T00:35:15.201Z,21.13
2023-03-02T00:37:41.653Z,22.75
2023-03-02T00:40:09.768Z,20.08
2023-03-02T00:42:37.085Z,17.88
2023-03-02T00:45:04.775Z,17.60
2023-03-02T00:47:33.492Z,19.88
2023-03-02T00:49:59.919Z,21.10
2023-03-02T00:52:26.533Z,19.60
2023-03-02T00:54:53.026Z,17.40
2023-03-02T00:57:19.553Z,17.00
2023-03-02T00:59:46.030Z,19.13
2023-03-02T01:02:12.505Z,18.50
2023-03-02T01:04:40.424Z,17.67
2023-03-02T01:07:10.681Z,21.85
2023-03-02T01:09:37.751Z,24.55
2023-03-02T01:12:05.547Z,20.25
2023-03-02T01:14:32.065Z,21.45
2023-03-02T01:16:58.745Z,20.73
2023-03-02T01:19:25.236Z,18.73
2023-03-02T01:21:51.659Z,18.77
2023-03-02T01:24:18.102Z,16.10
2023-03-02T01:26:44.597Z,19.52
2023-03-02T01:29:11.642Z,18.25
2023-03-02T01:31:38.955Z,18.25
2023-03-02T01:34:05.597Z,19.90
2023-03-02T01:36:32.525Z,18.35
2023-03-02T01:38:59.133Z,18.83
2023-03-02T01:41:25.702Z,19.17
2023-03-02T01:43:52.178Z,20.25
2023-03-02T01:46:28.621Z,18.35
2023-03-02T01:49:05.531Z,18.00
2023-03-02T01:51:34.141Z,17.50
2023-03-02T01:54:06.412Z,16.30
2023-03-02T01:56:36.947Z,16.58
2023-03-02T01:59:08.755Z,17.30
2023-03-02T02:01:36.566Z,15.65
2023-03-02T02:04:03.097Z,14.90
2023-03-02T02:06:39.473Z,13.82
2023-03-02T02:09:11.069Z,12.25
2023-03-02T02:11:37.604Z,11.77
2023-03-02T02:14:04.783Z,14.07
2023-03-02T02:16:32.705Z,13.23
2023-03-02T02:18:59.794Z,14.98
2023-03-02T02:21:27.757Z,15.40
2023-03-02T02:23:54.165Z,13.38
2023-03-02T02:26:22.712Z,17.20
2023-03-02T02:28:52.519Z,13.90
2023-03-02T02:31:26.821Z,11.93
2023-03-02T02:33:55.596Z,12.70
2023-03-02T02:36:24.746Z,13.45
2023-03-02T02:38:54.289Z,14.13
2023-03-02T02:41:22.563Z,12.52
2023-03-02T02:43:49.691Z,13.40
2023-03-02T02:46:16.624Z,13.00
2023-03-02T02:48:43.166Z,14.23
2023-03-02T02:51:12.949Z,14.05
2023-03-02T02:53:50.342Z,11.38
2023-03-02T02:56:17.155Z,12.07
2023-03-02T02:58:45.741Z,11.95
2023-03-02T03:01:13.992Z,11.10
2023-03-02T03:03:42.579Z,12.63
2023-03-02T03:06:13.106Z,11.90
2023-03-02T03:08:45.761Z,10.15
2023-03-02T03:11:19.467Z,11.15
2023-03-02T03:13:46.909Z,10.15
2023-03-02T03:16:16.138Z,12.88
2023-03-02T03:18:43.483Z,9.75
2023-03-02T03:21:10.016Z,13.20
2023-03-02T03:23:38.378Z,11.35
2023-03-02T03:26:05.707Z,11.18
2023-03-02T03:28:32.399Z,11.57
2023-03-02T03:30:59.014Z,9.50
2023-03-02T03:33:25.572Z,10.55
2023-03-02T03:35:52.045Z,11.23
2023-03-02T03:38:18.546Z,10.80
2023-03-02T03:40:45.069Z,8.63
2023-03-02T03:43:13.768Z,8.30
2023-03-02T03:45:40.253Z,8.07
2023-03-02T03:48:06.998Z,10.85
2023-03-02T03:50:33.472Z,8.70
2023-03-02T03:53:01.361Z,9.52
2023-03-02T03:55:30.163Z,9.60
2023-03-02T03:57:56.674Z,8.10
2023-03-02T04:00:23.348Z,9.23
2023-03-02T04:02:50.700Z,8.48
2023-03-02T04:05:17.326Z,6.95
2023-03-02T04:07:43.745Z,10.38
2023-03-02T04:10:10.571Z,8.10
2023-03-02T04:12:38.327Z,8.23
2023-03-02T04:15:06.259Z,8.40
2023-03-02T04:17:32.794Z,7.60
2023-03-02T04:19:59.584Z,7.75
2023-03-02T04:22:26.360Z,13.75
2023-03-02T04:24:53.051Z,15.10
2023-03-02T04:27:19.774Z,8.93
2023-03-02T04:29:46.460Z,8.52
2023-03-02T04:32:14.873Z,9.73
2023-03-02T04:34:41.609Z,8.07
2023-03-02T04:37:08.155Z,9.48
2023-03-02T04:39:34.606Z,9.93
2023-03-02T04:42:01.094Z,8.02
2023-03-02T04:44:27.621Z,9.07
2023-03-02T04:46:54.322Z,9.05
2023-03-02T04:49:21.174Z,12.88
2023-03-02T04:51:48.471Z,10.60
2023-03-02T04:54:16.596Z,7.40
2023-03-02T04:56:43.050Z,9.20
2023-03-02T04:59:09.514Z,10.40
2023-03-02T05:01:36.013Z,13.50
2023-03-02T05:04:03.072Z,12.95
2023-03-02T05:06:29.722Z,10.15
2023-03-02T05:08:59.818Z,13.07
2023-03-02T05:11:26.611Z,13.18
2023-03-02T05:13:54.550Z,10.30
2023-03-02T05:16:21.427Z,10.52
2023-03-02T05:18:48.036Z,9.43
2023-03-02T05:21:14.957Z,10.27
2023-03-02T05:23:42.040Z,9.77
2023-03-02T05:26:08.513Z,11.18
2023-03-02T05:28:35.151Z,9.40
2023-03-02T05:31:02.496Z,13.60
2023-03-02T05:33:29.330Z,9.13
2023-03-02T05:35:55.883Z,13.25
2023-03-02T05:38:22.773Z,13.27
2023-03-02T05:40:49.282Z,12.25
2023-03-02T05:43:18.497Z,11.57
2023-03-02T05:45:45.248Z,10.95
2023-03-02T05:48:12.789Z,14.57
2023-03-02T05:50:39.365Z,15.27
2023-03-02T05:53:06.019Z,16.65
2023-03-02T05:55:37.297Z,16.10
2023-03-02T05:58:07.393Z,14.68
2023-03-02T06:00:33.908Z,15.95
2023-03-02T06:03:00.400Z,18.70
2023-03-02T06:05:26.936Z,12.93
2023-03-02T06:07:53.848Z,14.15
2023-03-02T06:10:20.515Z,13.30
2023-03-02T06:12:47.037Z,13.05
2023-03-02T06:15:13.563Z,12.73
2023-03-02T06:17:40.167Z,12.15
2023-03-02T06:20:11.046Z,14.93
2023-03-02T06:22:41.461Z,14.43
2023-03-02T06:25:12.244Z,18.63
2023-03-02T06:27:38.969Z,13.40
2023-03-02T06:30:06.263Z,14.95
2023-03-02T06:32:34.395Z,13.00
2023-03-02T06:35:01.378Z,12.40
2023-03-02T06:37:28.649Z,17.15
2023-03-02T06:39:55.608Z,18.30
2023-03-02T06:42:22.331Z,18.83
2023-03-02T06:44:49.021Z,12.43
2023-03-02T06:47:15.541Z,13.27
2023-03-02T06:49:42.048Z,12.77
2023-03-02T06:52:08.520Z,17.85
2023-03-02T06:54:34.998Z,14.20
2023-03-02T06:57:01.422Z,18.95
2023-03-02T06:59:27.924Z,17.23
2023-03-02T07:01:54.545Z,15.05
2023-03-02T07:04:21.011Z,24.13
2023-03-02T07:06:48.012Z,16.05
2023-03-02T07:09:14.604Z,14.90
2023-03-02T07:11:41.311Z,19.48
2023-03-02T07:14:07.853Z,16.17
2023-03-02T07:16:34.972Z,18.35
2023-03-02T07:19:01.579Z,19.42
2023-03-02T07:21:28.130Z,18.73
2023-03-02T07:23:54.705Z,14.02
2023-03-02T07:26:21.177Z,19.60
2023-03-02T07:28:47.610Z,13.50
2023-03-02T07:31:14.053Z,12.32
2023-03-02T07:33:40.612Z,11.32
2023-03-02T07:36:08.054Z,12.27
2023-03-02T07:38:34.625Z,17.48
2023-03-02T07:41:01.223Z,15.38
2023-03-02T07:43:28.830Z,18.27
2023-03-02T07:45:55.315Z,13.63
2023-03-02T07:48:23.504Z,12.93
2023-03-02T07:50:50.051Z,12.30
2023-03-02T07:53:16.539Z,15.30
2023-03-02T07:55:42.993Z,16.27
2023-03-02T07:58:09.475Z,14.07
2023-03-02T08:00:36.750Z,17.85
2023-03-02T08:03:03.319Z,15.18
2023-03-02T08:05:30.405Z,13.18
2023-03-02T08:07:56.831Z,14.02
2023-03-02T08:10:23.310Z,11.02
2023-03-02T08:12:49.725Z,11.05
2023-03-02T08:15:16.250Z,10.60
2023-03-02T08:17:42.711Z,11.45
2023-03-02T08:20:09.812Z,12.77
2023-03-02T08:22:36.556Z,13.02
2023-03-02T08:25:03.509Z,13.68
2023-03-02T08:27:29.933Z,16.98
2023-03-02T08:29:56.871Z,18.30
2023-03-02T08:32:23.439Z,18.38
2023-03-02T08:34:51.827Z,16.35
2023-03-02T08:37:19.321Z,24.70
2023-03-02T08:39:45.912Z,56.80
2023-03-02T08:42:12.362Z,26.40
2023-03-02T08:44:38.778Z,19.40
2023-03-02T08:47:05.238Z,45.95
2023-03-02T08:49:31.714Z,27.38
2023-03-02T08:51:58.916Z,19.02
2023-03-02T08:54:25.402Z,14.27
2023-03-02T08:56:51.901Z,20.70
2023-03-02T08:59:18.528Z,16.45
2023-03-02T09:01:45.155Z,21.08
2023-03-02T09:04:11.789Z,13.15
2023-03-02T09:06:39.569Z,14.93
2023-03-02T09:09:06.498Z,21.08
2023-03-02T09:11:33.561Z,15.88
2023-03-02T09:14:00.383Z,18.67
2023-03-02T09:16:26.892Z,19.25
2023-03-02T09:18:54.093Z,16.60
2023-03-02T09:21:20.671Z,14.65
2023-03-02T09:23:47.206Z,17.75
2023-03-02T09:26:13.752Z,16.23
2023-03-02T09:28:40.235Z,16.98
2023-03-02T09:31:08.193Z,16.73
2023-03-02T09:33:34.863Z,15.80
2023-03-02T09:36:04.814Z,18.27
2023-03-02T09:38:31.233Z,16.90
2023-03-02T09:41:24.024Z,17.70
2023-03-02T09:44:09.217Z,17.75
2023-03-02T09:46:38.286Z,14.77
2023-03-02T09:49:12.630Z,18.00
2023-03-02T09:51:41.961Z,17.75
2023-03-02T09:54:16.121Z,19.65
2023-03-02T09:56:44.261Z,17.70
2023-03-02T09:59:49.351Z,21.30
2023-03-02T10:02:21.637Z,19.00
2023-03-02T10:04:50.479Z,19.63
2023-03-02T10:07:19.843Z,19.58
2023-03-02T10:09:46.491Z,20.35
2023-03-02T10:12:12.910Z,19.08
2023-03-02T10:14:43.126Z,24.35
2023-03-02T10:17:09.577Z,18.52
2023-03-02T10:19:44.342Z,19.00
2023-03-02T10:22:18.192Z,17.90
2023-03-02T10:24:47.639Z,20.58
2023-03-02T10:27:21.339Z,20.55
2023-03-02T10:30:02.659Z,20.23
2023-03-02T10:32:32.237Z,20.92
2023-03-02T10:34:59.471Z,17.77
2023-03-02T10:37:28.940Z,18.63
2023-03-02T10:39:55.708Z,17.05
2023-03-02T10:42:34.226Z,19.25
2023-03-02T10:45:12.942Z,20.55
2023-03-02T10:47:39.592Z,22.95
2023-03-02T10:50:20.870Z,18.67
2023-03-02T10:52:59.716Z,16.73
2023-03-02T10:55:27.079Z,17.08
2023-03-02T10:58:01.072Z,15.73
2023-03-02T11:00:29.304Z,15.20
2023-03-02T11:02:56.913Z,21.77
2023-03-02T11:05:27.645Z,19.63
2023-03-02T11:08:04.956Z,15.43
2023-03-02T11:10:36.701Z,17.48
2023-03-02T11:13:15.781Z,15.02
2023-03-02T11:15:47.045Z,15.50
2023-03-02T11:18:25.146Z,11.75
2023-03-02T11:21:05.991Z,12.50
2023-03-02T11:23:38.221Z,16.45
2023-03-02T11:26:27.792Z,14.95
2023-03-02T11:28:59.880Z,10.27
2023-03-02T11:31:41.715Z,11.45
2023-03-02T11:34:20.189Z,13.75
2023-03-02T11:37:09.785Z,13.25
2023-03-02T11:39:58.925Z,17.20
2023-03-02T11:42:30.723Z,14.10
2023-03-02T11:47:23.966Z,16.40
2023-03-02T11:49:55.175Z,14.73
2023-03-02T11:52:23.244Z,16.05
2023-03-02T11:54:53.759Z,13.55
2023-03-02T11:57:33.394Z,11.52
2023-03-02T12:00:00.694Z,15.88
2023-03-02T12:02:28.570Z,19.55
2023-03-02T12:05:02.592Z,16.27
2023-03-02T12:07:29.083Z,18.65
2023-03-02T12:09:58.283Z,19.58
2023-03-02T12:12:24.698Z,14.55
2023-03-02T12:14:52.522Z,16.85
2023-03-02T12:17:19.277Z,16.98
2023-03-02T12:19:45.833Z,14.43
2023-03-02T12:22:14.691Z,13.95
2023-03-02T12:24:42.424Z,12.77
2023-03-02T12:27:20.919Z,14.88
2023-03-02T12:29:52.122Z,18.73
2023-03-02T13:08:48.627Z,13.27
2023-03-02T13:31:49.809Z,15.63
2023-03-02T13:34:23.849Z,16.10
2023-03-02T13:36:50.749Z,18.98
2023-03-02T13:39:19.769Z,11.40
2023-03-02T13:41:56.758Z,13.80
2023-03-02T13:44:30.684Z,16.25
2023-03-02T13:46:57.444Z,18.10
2023-03-02T13:49:32.502Z,10.23
2023-03-02T13:52:03.604Z,11.27
2023-03-02T13:54:31.437Z,9.00
2023-03-02T13:56:59.201Z,10.45
2023-03-02T13:59:25.960Z,13.55
2023-03-02T14:01:52.631Z,15.82
2023-03-02T14:04:21.702Z,15.60
2023-03-02T14:06:48.269Z,17.13
2023-03-02T14:09:15.025Z,13.15
2023-03-02T14:11:43.571Z,14.98
2023-03-02T14:14:15.895Z,15.25
2023-03-02T14:16:42.407Z,14.27
2023-03-02T14:19:13.800Z,15.45
2023-03-02T14:21:40.396Z,14.48
2023-03-02T14:24:07.135Z,15.98
2023-03-02T14:26:35.048Z,17.15
2023-03-02T14:29:24.896Z,19.92
2023-03-02T14:31:51.891Z,14.98
2023-03-02T14:34:18.560Z,16.23
2023-03-02T14:36:47.010Z,17.13
2023-03-02T14:39:24.094Z,15.35
2023-03-02T14:41:54.212Z,16.75
2023-03-02T14:44:21.167Z,20.10
2023-03-02T14:46:47.725Z,17.80
2023-03-02T14:49:14.280Z,19.23
2023-03-02T14:51:41.835Z,25.60
2023-03-02T14:54:11.051Z,22.38
2023-03-02T14:56:37.612Z,25.58
2023-03-02T14:59:04.199Z,379.08
2023-03-02T15:01:31.944Z,159.57
2023-03-02T15:03:58.703Z,71.00
2023-03-02T15:06:32.228Z,74.88
2023-03-02T15:08:59.976Z,387.70
2023-03-02T15:11:27.384Z,134.90
2023-03-02T15:13:54.432Z,69.53
2023-03-02T15:16:21.159Z,73.68
2023-03-02T15:18:51.436Z,127.88
2023-03-02T15:21:22.150Z,376.17
2023-03-02T15:23:48.911Z,252.75
2023-03-02T15:26:15.777Z,200.38
2023-03-02T15:28:42.609Z,487.63
2023-03-02T15:31:10.018Z,459.45
2023-03-02T15:33:36.992Z,190.00
2023-03-02T15:36:06.284Z,102.70
2023-03-02T15:38:33.326Z,46.53
2023-03-02T15:41:04.007Z,35.15
2023-03-02T15:43:30.481Z,39.28
2023-03-02T15:45:57.061Z,36.92
2023-03-02T15:48:23.621Z,43.22
2023-03-02T15:51:00.689Z,32.92
2023-03-02T15:53:28.505Z,35.05
2023-03-02T15:55:55.352Z,42.67
2023-03-02T15:58:24.509Z,39.50
2023-03-02T16:00:53.602Z,39.17
2023-03-02T16:03:20.173Z,56.65
2023-03-02T16:05:46.906Z,43.22
2023-03-02T16:08:13.434Z,46.22
2023-03-02T16:10:42.918Z,57.95
2023-03-02T16:13:10.110Z,41.20
2023-03-02T16:15:37.242Z,38.85
2023-03-02T16:18:03.736Z,49.22
2023-03-02T16:20:30.232Z,49.88
2023-03-02T16:22:57.787Z,52.78
2023-03-02T16:25:24.916Z,49.33
2023-03-02T16:27:53.210Z,38.88
2023-03-02T16:30:22.766Z,45.58
2023-03-02T16:32:49.820Z,44.47
2023-03-02T16:35:16.328Z,45.45
2023-03-02T16:37:44.581Z,42.20
2023-03-02T16:40:11.514Z,51.30
2023-03-02T16:42:37.941Z,50.63
2023-03-02T16:45:05.018Z,42.90
2023-03-02T16:47:31.427Z,44.90
2023-03-02T16:49:58.053Z,50.92
2023-03-02T16:52:24.583Z,46.42
2023-03-02T16:54:51.131Z,49.08
2023-03-02T16:57:17.918Z,48.72
2023-03-02T16:59:44.446Z,46.55
2023-03-02T17:02:11.560Z,43.40
2023-03-02T17:04:38.133Z,46.78
2023-03-02T17:07:05.820Z,45.75
2023-03-02T17:09:34.155Z,50.30
2023-03-02T17:12:00.636Z,41.97
2023-03-02T17:14:27.596Z,42.58
2023-03-02T17:16:54.713Z,546.00
2023-03-02T17:19:21.625Z,646.97
2023-03-02T17:21:48.158Z,594.95
2023-03-02T17:24:14.693Z,639.08
2023-03-02T17:26:41.219Z,479.05
2023-03-02T17:29:08.166Z,398.90
2023-03-02T17:31:34.695Z,194.32
2023-03-02T17:34:01.208Z,244.27
2023-03-02T17:36:27.722Z,236.85
2023-03-02T17:38:54.251Z,115.82
2023-03-02T17:41:20.686Z,80.10
2023-03-02T17:43:47.184Z,77.00
2023-03-02T17:46:20.424Z,54.83
2023-03-02T17:48:47.708Z,65.97
2023-03-02T17:51:17.040Z,52.28
2023-03-02T17:53:44.569Z,50.70
2023-03-02T17:56:12.049Z,48.75
2023-03-02T17:58:44.926Z,48.05
2023-03-02T18:01:12.705Z,48.13
2023-03-02T18:03:39.336Z,49.72
2023-03-02T18:06:06.033Z,54.00
2023-03-02T18:08:33.260Z,51.08
2023-03-02T18:11:00.213Z,45.97
2023-03-02T18:13:26.656Z,52.50
2023-03-02T18:15:53.098Z,61.92
2023-03-02T18:18:19.588Z,46.92
2023-03-02T18:20:46.133Z,47.47
2023-03-02T18:23:12.854Z,56.55
2023-03-02T18:25:39.355Z,50.90
2023-03-02T18:28:05.951Z,49.22
2023-03-02T18:30:32.364Z,47.15
2023-03-02T18:32:58.926Z,49.83
2023-03-02T18:35:25.524Z,54.30
2023-03-02T18:37:52.224Z,53.10
2023-03-02T18:40:18.917Z,51.72
2023-03-02T18:42:45.446Z,56.13
2023-03-02T18:45:18.011Z,53.95
2023-03-02T18:47:46.162Z,57.05
2023-03-02T18:50:14.613Z,53.70
2023-03-02T18:52:41.169Z,69.40
2023-03-02T18:55:08.986Z,66.50
2023-03-02T18:57:36.132Z,57.33
2023-03-02T19:00:03.010Z,54.65
2023-03-02T19:02:29.836Z,55.15
2023-03-02T19:04:56.469Z,62.35
2023-03-02T19:07:22.890Z,57.47
2023-03-02T19:09:49.314Z,60.80
2023-03-02T19:12:15.841Z,56.78
2023-03-02T19:14:42.796Z,61.65
2023-03-02T19:17:09.536Z,54.38
2023-03-02T19:19:35.960Z,58.83
2023-03-02T19:22:02.576Z,63.22
2023-03-02T19:24:29.046Z,59.70
2023-03-02T19:26:55.461Z,56.40
2023-03-02T19:29:23.248Z,56.35
2023-03-02T19:31:49.805Z,62.35
2023-03-02T19:34:16.506Z,67.70
2023-03-02T19:36:43.807Z,62.30
2023-03-02T19:39:10.302Z,61.42
2023-03-02T19:41:36.826Z,63.28
2023-03-02T19:44:03.569Z,64.18
2023-03-02T19:46:29.989Z,57.40
2023-03-02T19:48:56.500Z,62.95
2023-03-02T19:51:22.919Z,61.42
2023-03-02T19:53:49.504Z,59.00
2023-03-02T19:56:16.439Z,56.42
2023-03-02T19:58:53.507Z,58.47
2023-03-02T20:01:21.860Z,56.35
2023-03-02T20:03:49.507Z,64.10
2023-03-02T20:06:16.322Z,57.35
2023-03-02T20:08:42.812Z,59.08
2023-03-02T20:11:09.478Z,61.40
2023-03-02T20:13:36.049Z,62.08
2023-03-02T20:16:03.129Z,63.20
2023-03-02T20:18:29.613Z,76.63
2023-03-02T20:20:56.112Z,65.55
2023-03-02T20:23:22.681Z,68.30
2023-03-02T20:25:49.242Z,67.63
2023-03-02T20:28:16.773Z,65.28
2023-03-02T20:30:46.299Z,68.93
2023-03-02T20:33:13.660Z,68.00
2023-03-02T20:35:41.216Z,67.25
2023-03-02T20:38:14.259Z,72.60
2023-03-02T20:40:40.787Z,71.15
2023-03-02T20:43:07.384Z,68.00
2023-03-02T20:45:33.819Z,66.90
2023-03-02T20:48:00.372Z,67.80
2023-03-02T20:50:28.887Z,75.55
2023-03-02T20:52:55.446Z,66.68
2023-03-02T20:55:21.981Z,65.60
2023-03-02T20:57:48.693Z,63.08
2023-03-02T21:00:16.896Z,62.35
2023-03-02T21:02:44.319Z,68.15
2023-03-02T21:05:12.168Z,58.85
2023-03-02T21:07:38.657Z,61.70
2023-03-02T21:10:06.409Z,64.63
2023-03-02T21:12:33.327Z,61.78
2023-03-02T21:15:02.037Z,62.05
2023-03-02T21:17:30.774Z,59.90
2023-03-02T21:19:58.220Z,59.28
2023-03-02T21:22:25.085Z,57.13
2023-03-02T21:24:53.002Z,63.75
2023-03-02T21:27:19.711Z,58.00
2023-03-02T21:29:46.286Z,55.08
2023-03-02T21:32:12.748Z,58.30
2023-03-02T21:34:39.262Z,58.58
2023-03-02T21:37:05.947Z,51.55
2023-03-02T21:39:32.696Z,55.15
2023-03-02T21:41:59.306Z,50.20
2023-03-02T21:44:25.984Z,54.05
2023-03-02T21:46:52.410Z,55.55
2023-03-02T21:49:20.172Z,48.13
2023-03-02T21:51:48.987Z,52.75
2023-03-02T21:54:16.366Z,51.75
2023-03-02T21:56:43.626Z,57.15
2023-03-02T21:59:10.850Z,61.75
2023-03-02T22:01:37.356Z,56.70
2023-03-02T22:04:04.074Z,59.92
2023-03-02T22:06:32.063Z,62.47
2023-03-02T22:08:58.993Z,52.70
2023-03-02T22:11:26.822Z,59.72
2023-03-02T22:13:55.318Z,60.50
2023-03-02T22:16:28.858Z,61.40
2023-03-02T22:18:59.323Z,63.80
2023-03-02T22:21:37.400Z,65.35
2023-03-02T22:24:06.791Z,72.03
2023-03-02T22:26:35.452Z,65.88
2023-03-02T22:29:14.531Z,64.57
2023-03-02T22:31:43.239Z,67.97
2023-03-02T22:34:13.424Z,62.65
2023-03-02T22:36:39.910Z,59.55
2023-03-02T22:39:10.921Z,61.13
2023-03-02T22:41:37.413Z,44.57
2023-03-02T22:44:09.305Z,61.40
2023-03-02T22:49:02.168Z,63.28
2023-03-02T22:51:30.449Z,61.72
2023-03-02T22:53:58.580Z,67.78
2023-03-02T22:56:29.775Z,59.60
2023-03-02T22:58:58.192Z,47.45
2023-03-02T23:01:29.596Z,64.80
2023-03-02T23:04:13.515Z,63.25
2023-03-02T23:06:45.289Z,67.07
2023-03-02T23:09:12.977Z,62.40
2023-03-02T23:11:40.973Z,62.90
2023-03-02T23:14:27.722Z,66.45
2023-03-02T23:16:58.591Z,69.97
2023-03-02T23:19:26.301Z,66.78
2023-03-02T23:21:52.982Z,61.28
2023-03-02T23:24:20.949Z,65.40
2023-03-02T23:26:48.127Z,63.05
2023-03-02T23:29:14.661Z,63.92
2023-03-02T23:31:41.164Z,62.17
2023-03-02T23:34:07.723Z,58.47
2023-03-02T23:36:34.279Z,60.63
2023-03-02T23:39:00.929Z,53.70
2023-03-02T23:41:27.442Z,67.45
2023-03-02T23:43:53.980Z,62.90
2023-03-02T23:46:20.722Z,63.22
2023-03-02T23:48:48.066Z,57.47
2023-03-02T23:51:15.003Z,61.97
2023-03-02T23:53:41.670Z,56.17
2023-03-02T23:56:08.216Z,60.65
2023-03-02T23:58:34.781Z,59.90
